Time;durP1;ratioP1;P1;durP2;ratioP2;P2;SDS_P1;SDS_P2;PMS_P1;PMS_P2;Temp;Humidity;BMP_temperature;BMP_pressure;BME280_temperature;BME280_humidity;BME280_pressure;Samples;Min_cycle;Max_cycle;Signal;HPM_P1;HPM_P2
2021/06/23 00:01:06;;;;;;;1.00;0.70;;;20.50;99.90;;;;;;5094892;28;20425;-60
2021/06/23 00:03:33;;;;;;;1.50;0.70;;;20.30;99.90;;;;;;5115061;28;20424;-60
2021/06/23 00:06:01;;;;;;;1.20;0.70;;;20.00;99.90;;;;;;5115208;28;20519;-59
2021/06/23 00:08:28;;;;;;;0.90;0.60;;;19.80;99.90;;;;;;5114700;28;20467;-59
2021/06/23 00:10:55;;;;;;;0.80;0.70;;;19.80;99.90;;;;;;5114423;28;20401;-60
2021/06/23 00:13:23;;;;;;;1.40;0.75;;;19.80;99.90;;;;;;5116139;28;20795;-59
2021/06/23 00:15:50;;;;;;;2.92;0.80;;;19.80;99.90;;;;;;5119248;28;20416;-60
2021/06/23 00:18:17;;;;;;;1.60;0.70;;;19.80;99.90;;;;;;5119098;28;20727;-59
2021/06/23 00:20:44;;;;;;;2.60;0.80;;;19.80;99.90;;;;;;5119466;28;20518;-59
2021/06/23 00:23:12;;;;;;;1.67;0.80;;;19.80;99.90;;;;;;5118591;28;20420;-59
2021/06/23 00:25:39;;;;;;;1.23;0.80;;;19.80;99.90;;;;;;5118951;28;20885;-60
2021/06/23 00:28:06;;;;;;;1.60;0.80;;;19.80;99.90;;;;;;5119085;28;20835;-59
2021/06/23 00:30:33;;;;;;;0.90;0.70;;;19.90;99.90;;;;;;5118362;28;20420;-59
2021/06/23 00:33:07;;;;;;;0.80;0.60;;;20.10;99.90;;;;;;5118889;28;20427;-60
2021/06/23 00:35:34;;;;;;;1.00;0.80;;;20.40;99.90;;;;;;5118136;28;20853;-59
2021/06/23 00:38:02;;;;;;;1.10;0.70;;;20.40;99.90;;;;;;5117908;28;20829;-59
2021/06/23 00:40:31;;;;;;;1.30;0.80;;;20.40;99.90;;;;;;5117426;28;20857;-59
2021/06/23 00:42:58;;;;;;;1.50;0.80;;;20.30;99.90;;;;;;5117095;28;20486;-57
2021/06/23 00:45:25;;;;;;;0.90;0.70;;;20.30;99.90;;;;;;5117420;28;20773;-59
2021/06/23 00:47:54;;;;;;;1.05;0.80;;;20.30;99.90;;;;;;5117066;28;20467;-58
2021/06/23 00:50:21;;;;;;;2.00;0.80;;;20.30;99.90;;;;;;5116134;28;20644;-58
2021/06/23 00:52:49;;;;;;;0.90;0.70;;;20.40;99.90;;;;;;5115318;28;20451;-59
2021/06/23 00:55:21;;;;;;;1.10;0.80;;;20.30;99.90;;;;;;5115171;28;20443;-58
2021/06/23 00:57:51;;;;;;;0.80;0.60;;;20.20;99.90;;;;;;5116471;28;20444;-59
2021/06/23 01:00:21;;;;;;;1.50;0.63;;;20.00;99.90;;;;;;5115305;28;20519;-58
2021/06/23 01:02:49;;;;;;;1.52;0.70;;;20.00;99.90;;;;;;5116376;28;20428;-59
2021/06/23 01:05:17;;;;;;;1.20;0.70;;;19.90;99.90;;;;;;5116638;28;20423;-59
2021/06/23 01:07:46;;;;;;;2.30;0.90;;;19.90;99.90;;;;;;5116300;28;20416;-59
2021/06/23 01:10:14;;;;;;;1.02;0.70;;;19.90;99.90;;;;;;5116619;28;20774;-59
2021/06/23 01:12:51;;;;;;;1.30;0.65;;;19.80;99.90;;;;;;5116280;28;20730;-60
2021/06/23 01:15:19;;;;;;;1.50;0.80;;;19.80;99.90;;;;;;5117880;28;20731;-59
2021/06/23 01:17:50;;;;;;;1.50;0.80;;;19.70;99.90;;;;;;5118050;28;20433;-60
2021/06/23 01:20:18;;;;;;;1.10;0.63;;;19.60;99.90;;;;;;5117513;28;20777;-60
2021/06/23 01:22:46;;;;;;;0.93;0.70;;;19.70;99.90;;;;;;5117090;28;20516;-60
2021/06/23 01:25:16;;;;;;;1.20;0.60;;;20.00;99.90;;;;;;5117452;28;20511;-59
2021/06/23 01:27:44;;;;;;;1.60;0.60;;;20.00;99.90;;;;;;5116884;28;20511;-59
2021/06/23 01:30:13;;;;;;;1.50;0.60;;;19.80;99.90;;;;;;5117560;28;20520;-60
2021/06/23 01:32:40;;;;;;;0.85;0.60;;;19.90;99.90;;;;;;5116808;28;20518;-59
2021/06/23 01:35:08;;;;;;;0.75;0.52;;;19.80;99.90;;;;;;5116890;28;20781;-59
2021/06/23 01:37:35;;;;;;;0.80;0.60;;;19.90;99.90;;;;;;5117188;28;20467;-60
2021/06/23 01:40:05;;;;;;;1.10;0.60;;;20.10;99.90;;;;;;5117548;28;20933;-60
2021/06/23 01:42:31;;;;;;;0.70;0.50;;;20.10;99.90;;;;;;5116583;28;20464;-60
2021/06/23 01:45:00;;;;;;;0.70;0.50;;;20.10;99.90;;;;;;5117467;28;20827;-59
2021/06/23 01:47:27;;;;;;;0.70;0.50;;;19.90;99.90;;;;;;5116506;28;20423;-60
2021/06/23 01:49:54;;;;;;;1.70;0.60;;;19.80;99.90;;;;;;5117112;28;20784;-59
2021/06/23 01:52:21;;;;;;;0.90;0.60;;;19.70;99.90;;;;;;5116621;28;20467;-59
2021/06/23 01:54:50;;;;;;;0.70;0.50;;;19.60;99.90;;;;;;5116619;28;20768;-59
2021/06/23 01:57:18;;;;;;;0.80;0.60;;;19.60;99.90;;;;;;5116799;28;20527;-60
2021/06/23 01:59:47;;;;;;;0.80;0.60;;;19.60;99.90;;;;;;5117759;28;20459;-60
2021/06/23 02:02:24;;;;;;;0.80;0.60;;;19.70;99.90;;;;;;5116597;28;20430;-60
2021/06/23 02:04:53;;;;;;;0.80;0.60;;;19.70;99.90;;;;;;5117551;28;20711;-60
2021/06/23 02:07:57;;;;;;;0.80;0.70;;;19.70;99.90;;;;;;5116966;28;20428;-60
2021/06/23 02:10:50;;;;;;;1.20;0.60;;;19.60;99.90;;;;;;5116101;28;20455;-60
2021/06/23 02:14:01;;;;;;;0.90;0.60;;;19.50;99.90;;;;;;5115641;28;20424;-59
2021/06/23 02:16:33;;;;;;;1.92;0.60;;;19.60;99.90;;;;;;5116300;28;20493;-60
2021/06/23 02:19:03;;;;;;;0.90;0.68;;;19.50;99.90;;;;;;5116075;28;21016;-59
2021/06/23 02:21:31;;;;;;;0.90;0.60;;;19.50;99.90;;;;;;5115863;28;20752;-59
2021/06/23 02:23:59;;;;;;;2.10;0.70;;;19.50;99.90;;;;;;5116600;28;20424;-59
2021/06/23 02:26:27;;;;;;;0.80;0.70;;;19.50;99.90;;;;;;5116733;28;20512;-59
2021/06/23 02:28:54;;;;;;;1.00;0.70;;;19.40;99.90;;;;;;5116852;28;20487;-60
2021/06/23 02:31:21;;;;;;;1.00;0.70;;;19.30;99.90;;;;;;5116709;28;20495;-59
2021/06/23 02:33:55;;;;;;;1.10;0.70;;;19.10;99.90;;;;;;5116140;28;20436;-59
2021/06/23 02:36:24;;;;;;;2.00;0.70;;;19.10;99.90;;;;;;5116258;28;20422;-60
2021/06/23 02:38:52;;;;;;;3.00;0.80;;;19.00;99.90;;;;;;5116610;28;20522;-59
2021/06/23 02:41:19;;;;;;;1.80;0.80;;;18.90;99.90;;;;;;5115858;28;20448;-59
2021/06/23 02:43:46;;;;;;;1.08;0.70;;;19.00;99.90;;;;;;5116467;28;20893;-59
2021/06/23 02:46:13;;;;;;;1.20;0.70;;;19.00;99.90;;;;;;5116040;28;20877;-59
2021/06/23 02:48:41;;;;;;;1.10;0.70;;;19.10;99.90;;;;;;5114914;28;20518;-60
2021/06/23 02:51:17;;;;;;;2.03;0.70;;;19.30;99.90;;;;;;5114926;28;20465;-59
2021/06/23 02:53:45;;;;;;;1.00;0.70;;;19.40;99.90;;;;;;5116595;28;20416;-59
2021/06/23 02:56:13;;;;;;;1.10;0.80;;;19.40;99.90;;;;;;5115954;28;20416;-59
2021/06/23 02:58:42;;;;;;;0.98;0.70;;;19.40;99.90;;;;;;5116253;28;20436;-59
2021/06/23 03:01:10;;;;;;;0.90;0.70;;;19.40;99.90;;;;;;5115921;28;20759;-59
2021/06/23 03:03:37;;;;;;;1.10;0.80;;;19.40;99.90;;;;;;5115719;28;20485;-60
2021/06/23 03:06:05;;;;;;;1.10;0.70;;;19.40;99.90;;;;;;5115599;28;20503;-59
2021/06/23 03:08:34;;;;;;;2.67;0.60;;;19.30;99.90;;;;;;5115269;28;20432;-59
2021/06/23 03:11:01;;;;;;;0.90;0.70;;;19.20;99.90;;;;;;5115897;28;20484;-60
2021/06/23 03:13:28;;;;;;;0.90;0.70;;;19.40;99.90;;;;;;5115756;28;20851;-59
2021/06/23 03:15:55;;;;;;;0.90;0.65;;;19.50;99.90;;;;;;5115862;28;20447;-59
2021/06/23 03:18:22;;;;;;;0.90;0.70;;;19.40;99.90;;;;;;5116131;28;20523;-60
2021/06/23 03:20:49;;;;;;;1.10;0.60;;;19.30;99.90;;;;;;5115349;28;20472;-60
2021/06/23 03:23:17;;;;;;;0.93;0.60;;;19.30;99.90;;;;;;5115280;28;20459;-60
2021/06/23 03:25:45;;;;;;;1.10;0.60;;;19.30;99.90;;;;;;5115512;28;20503;-60
2021/06/23 03:28:12;;;;;;;0.90;0.70;;;19.40;99.90;;;;;;5113911;28;20451;-60
2021/06/23 03:30:40;;;;;;;1.05;0.60;;;19.60;99.90;;;;;;5113707;28;20448;-60
2021/06/23 03:33:07;;;;;;;1.17;0.65;;;19.60;99.90;;;;;;5114074;28;20779;-60
2021/06/23 03:35:34;;;;;;;1.30;0.80;;;19.70;99.90;;;;;;5114028;28;20503;-60
2021/06/23 03:38:01;;;;;;;1.30;0.70;;;19.70;99.90;;;;;;5113879;28;20534;-60
2021/06/23 03:40:28;;;;;;;1.70;0.60;;;19.70;99.90;;;;;;5113997;28;20458;-60
2021/06/23 03:42:56;;;;;;;0.80;0.60;;;19.70;99.90;;;;;;5114794;28;20452;-60
2021/06/23 03:45:23;;;;;;;1.35;0.70;;;19.70;99.90;;;;;;5114923;28;20463;-63
2021/06/23 03:47:50;;;;;;;0.80;0.70;;;19.80;99.90;;;;;;5114549;28;20428;-60
2021/06/23 03:50:18;;;;;;;1.60;0.80;;;19.80;99.90;;;;;;5115245;28;20777;-60
2021/06/23 03:52:46;;;;;;;0.93;0.70;;;19.80;99.90;;;;;;5114147;28;20543;-60
2021/06/23 03:55:19;;;;;;;1.50;0.70;;;19.70;99.90;;;;;;5115301;28;20503;-60
2021/06/23 03:57:48;;;;;;;1.10;0.70;;;19.60;99.90;;;;;;5114239;28;20428;-60
2021/06/23 04:00:17;;;;;;;0.90;0.80;;;19.50;99.90;;;;;;5113207;28;20442;-60
2021/06/23 04:02:44;;;;;;;1.30;0.80;;;19.40;99.90;;;;;;5113125;28;20471;-60
2021/06/23 04:05:12;;;;;;;1.30;0.90;;;19.20;99.90;;;;;;5113944;28;20420;-60
2021/06/23 04:07:40;;;;;;;1.00;0.80;;;19.10;99.90;;;;;;5113142;28;20484;-60
2021/06/23 04:10:08;;;;;;;1.10;0.70;;;19.10;99.90;;;;;;5112729;28;20423;-60
2021/06/23 04:12:35;;;;;;;1.00;0.80;;;19.00;99.90;;;;;;5112606;28;20841;-60
2021/06/23 04:15:02;;;;;;;0.90;0.70;;;19.10;99.90;;;;;;5115136;28;20456;-60
2021/06/23 04:17:30;;;;;;;1.10;0.80;;;19.20;99.90;;;;;;5114983;28;20744;-60
2021/06/23 04:19:57;;;;;;;1.10;1.00;;;19.30;99.90;;;;;;5114415;28;20562;-60
2021/06/23 04:22:25;;;;;;;1.00;0.80;;;19.30;99.90;;;;;;5114631;28;20475;-61
2021/06/23 04:24:52;;;;;;;1.02;0.80;;;19.20;99.90;;;;;;5114624;28;20420;-60
2021/06/23 04:27:19;;;;;;;1.35;0.90;;;19.20;99.90;;;;;;5114763;28;20719;-60
2021/06/23 04:29:46;;;;;;;1.13;0.80;;;19.20;99.90;;;;;;5114802;28;20416;-60
2021/06/23 04:32:13;;;;;;;1.20;0.90;;;19.10;99.90;;;;;;5114288;28;20432;-60
2021/06/23 04:34:42;;;;;;;1.00;0.80;;;19.10;99.90;;;;;;5114343;28;20927;-60
2021/06/23 04:37:08;;;;;;;1.00;0.80;;;19.20;99.90;;;;;;5114401;28;20522;-60
2021/06/23 04:39:35;;;;;;;1.00;0.70;;;19.10;99.90;;;;;;5114241;28;20511;-58
2021/06/23 04:42:02;;;;;;;1.10;0.90;;;19.00;99.90;;;;;;5114564;28;20519;-59
2021/06/23 04:44:29;;;;;;;1.00;0.80;;;19.00;99.90;;;;;;5114868;28;20436;-60
2021/06/23 04:46:56;;;;;;;1.58;0.80;;;19.00;99.90;;;;;;5113544;28;20492;-59
2021/06/23 04:49:23;;;;;;;0.90;0.70;;;19.00;99.90;;;;;;5113625;28;20427;-59
2021/06/23 04:51:51;;;;;;;2.47;0.90;;;19.00;99.90;;;;;;5113037;28;20470;-59
2021/06/23 04:54:18;;;;;;;1.00;0.70;;;19.00;99.90;;;;;;5112798;28;20491;-58
2021/06/23 04:56:45;;;;;;;0.80;0.60;;;19.10;99.90;;;;;;5112027;28;20459;-58
2021/06/23 04:59:12;;;;;;;0.95;0.70;;;19.10;99.90;;;;;;5114026;28;20526;-59
2021/06/23 05:01:39;;;;;;;1.40;0.60;;;19.20;99.90;;;;;;5115042;28;20420;-58
2021/06/23 05:04:06;;;;;;;1.52;0.75;;;19.30;99.90;;;;;;5117426;28;20499;-58
2021/06/23 05:06:32;;;;;;;0.90;0.70;;;19.40;99.90;;;;;;5114360;28;20444;-59
2021/06/23 05:09:01;;;;;;;1.00;0.70;;;19.40;99.90;;;;;;5114034;28;20473;-59
2021/06/23 05:11:28;;;;;;;0.90;0.80;;;19.30;99.90;;;;;;5114648;28;20496;-56
2021/06/23 05:13:58;;;;;;;1.40;0.70;;;19.30;99.90;;;;;;5115270;28;20999;-58
2021/06/23 05:16:26;;;;;;;1.55;0.70;;;19.20;99.90;;;;;;5135175;27;20422;-58
2021/06/23 05:18:54;;;;;;;1.80;0.70;;;19.20;99.90;;;;;;5136994;27;20733;-58
2021/06/23 05:21:21;;;;;;;1.02;0.70;;;19.10;99.90;;;;;;5136538;27;20446;-58
2021/06/23 05:23:47;;;;;;;1.25;0.65;;;19.10;99.90;;;;;;5136403;27;20450;-57
2021/06/23 05:26:16;;;;;;;0.90;0.60;;;19.20;99.90;;;;;;5136409;27;20978;-58
2021/06/23 05:28:43;;;;;;;0.80;0.60;;;19.40;99.90;;;;;;5136218;27;20505;-57
2021/06/23 05:31:10;;;;;;;0.70;0.50;;;19.60;99.90;;;;;;5137009;27;20479;-58
2021/06/23 05:33:37;;;;;;;1.00;0.60;;;19.70;99.90;;;;;;5135898;27;20519;-58
2021/06/23 05:36:04;;;;;;;0.80;0.50;;;19.70;99.90;;;;;;5136148;27;20810;-57
2021/06/23 05:38:31;;;;;;;0.90;0.52;;;19.70;99.90;;;;;;5135679;27;20418;-58
2021/06/23 05:40:58;;;;;;;1.30;0.60;;;19.70;99.90;;;;;;5135301;27;20414;-58
2021/06/23 05:43:26;;;;;;;0.70;0.50;;;19.70;99.90;;;;;;5136459;27;20849;-58
2021/06/23 05:45:53;;;;;;;0.70;0.50;;;19.60;99.90;;;;;;5135696;27;20774;-58
2021/06/23 05:48:20;;;;;;;0.70;0.50;;;19.70;99.90;;;;;;5135865;27;20510;-58
2021/06/23 05:50:47;;;;;;;0.80;0.60;;;19.80;99.90;;;;;;5135118;27;20510;-58
2021/06/23 05:53:14;;;;;;;0.70;0.50;;;19.90;99.90;;;;;;5135944;27;20524;-58
2021/06/23 05:55:41;;;;;;;0.70;0.50;;;20.10;99.90;;;;;;5133932;27;20414;-57
2021/06/23 05:58:09;;;;;;;0.85;0.50;;;20.20;99.90;;;;;;5133453;27;20471;-58
2021/06/23 06:00:38;;;;;;;0.80;0.50;;;20.20;99.90;;;;;;5134915;27;20433;-59
2021/06/23 06:03:05;;;;;;;0.80;0.50;;;20.20;99.90;;;;;;5135021;27;20426;-58
2021/06/23 06:05:32;;;;;;;0.50;0.38;;;20.30;99.90;;;;;;5135756;27;20509;-58
2021/06/23 06:07:59;;;;;;;0.80;0.40;;;20.30;99.90;;;;;;5134058;27;20513;-57
2021/06/23 06:10:27;;;;;;;0.52;0.40;;;20.40;99.90;;;;;;5134063;27;20497;-58
2021/06/23 06:12:54;;;;;;;1.38;0.40;;;20.30;99.90;;;;;;5134670;27;20430;-57
2021/06/23 06:15:21;;;;;;;0.50;0.30;;;20.40;99.90;;;;;;5133904;27;20438;-58
2021/06/23 06:17:49;;;;;;;0.70;0.38;;;20.40;99.90;;;;;;5133409;27;20453;-58
2021/06/23 06:20:16;;;;;;;0.45;0.30;;;20.40;99.90;;;;;;5132346;27;20574;-58
2021/06/23 06:22:43;;;;;;;0.50;0.40;;;20.50;99.90;;;;;;5133782;27;20780;-58
2021/06/23 06:25:12;;;;;;;1.20;0.40;;;20.60;99.90;;;;;;5134750;27;20462;-58
2021/06/23 06:27:39;;;;;;;1.20;0.40;;;20.60;99.90;;;;;;5133101;27;20795;-58
2021/06/23 06:30:07;;;;;;;0.60;0.40;;;20.80;99.90;;;;;;5132430;27;20887;-59
2021/06/23 06:32:34;;;;;;;0.60;0.40;;;20.90;99.90;;;;;;5134263;27;20846;-58
2021/06/23 06:35:02;;;;;;;1.02;0.40;;;20.90;99.90;;;;;;5134245;27;20499;-57
2021/06/23 06:37:29;;;;;;;0.60;0.40;;;21.10;99.90;;;;;;5135096;27;20515;-58
2021/06/23 06:39:56;;;;;;;0.50;0.40;;;21.10;99.90;;;;;;5134244;27;20873;-58
2021/06/23 06:42:23;;;;;;;0.60;0.33;;;21.20;99.90;;;;;;5133629;27;20470;-58
2021/06/23 06:44:49;;;;;;;0.60;0.40;;;21.30;99.90;;;;;;5132401;27;20450;-58
2021/06/23 06:47:16;;;;;;;1.70;0.50;;;21.20;99.90;;;;;;5132260;27;20861;-57
2021/06/23 06:49:43;;;;;;;0.50;0.40;;;21.10;99.90;;;;;;5131965;27;20528;-58
2021/06/23 06:52:11;;;;;;;0.60;0.40;;;21.10;99.90;;;;;;5134243;27;20480;-58
2021/06/23 06:54:38;;;;;;;0.70;0.50;;;21.20;99.90;;;;;;5133926;27;20794;-56
2021/06/23 06:57:06;;;;;;;0.80;0.40;;;21.20;99.90;;;;;;5132419;27;20841;-57
2021/06/23 06:59:33;;;;;;;0.55;0.40;;;21.40;99.90;;;;;;5133435;27;20517;-55
2021/06/23 07:02:00;;;;;;;1.40;0.40;;;21.60;99.90;;;;;;5133553;27;20425;-58
2021/06/23 07:04:27;;;;;;;1.40;0.40;;;21.60;99.90;;;;;;5116207;27;20444;-57
2021/06/23 07:06:54;;;;;;;0.60;0.40;;;21.80;99.90;;;;;;5111568;28;20771;-57
2021/06/23 07:09:23;;;;;;;0.50;0.40;;;22.00;99.90;;;;;;5111307;28;20506;-56
2021/06/23 07:11:51;;;;;;;1.00;0.40;;;22.20;99.90;;;;;;5112018;28;20432;-57
2021/06/23 07:14:20;;;;;;;0.50;0.40;;;22.50;99.90;;;;;;5112928;28;20452;-58
2021/06/23 07:16:47;;;;;;;1.10;0.40;;;22.50;99.90;;;;;;5110350;28;20432;-57
2021/06/23 07:19:14;;;;;;;0.77;0.40;;;22.50;99.90;;;;;;5131932;27;20494;-56
2021/06/23 07:21:41;;;;;;;0.60;0.40;;;22.50;99.90;;;;;;5131034;27;20899;-57
2021/06/23 07:24:09;;;;;;;1.00;0.90;;;22.50;99.90;;;;;;5127148;27;20447;-57
2021/06/23 07:26:38;;;;;;;0.60;0.40;;;22.40;99.90;;;;;;5123045;27;20412;-57
2021/06/23 07:29:06;;;;;;;0.60;0.40;;;22.70;99.90;;;;;;5111426;27;20862;-56
2021/06/23 07:31:42;;;;;;;1.20;0.40;;;23.00;99.90;;;;;;5124879;27;20513;-57
2021/06/23 07:34:35;;;;;;;0.60;0.40;;;23.20;99.90;;;;;;5126919;27;20426;-58
2021/06/23 07:37:03;;;;;;;0.87;0.40;;;23.40;99.90;;;;;;5121488;27;20439;-56
2021/06/23 07:39:31;;;;;;;1.60;0.40;;;23.80;99.90;;;;;;5114138;27;20427;-56
2021/06/23 07:42:00;;;;;;;0.60;0.45;;;23.90;99.90;;;;;;5122803;27;20501;-55
2021/06/23 07:44:30;;;;;;;0.70;0.40;;;23.80;99.90;;;;;;5122687;27;20487;-57
2021/06/23 07:46:58;;;;;;;1.20;0.60;;;23.60;99.90;;;;;;5130404;27;21060;-57
2021/06/23 07:49:27;;;;;;;2.00;0.47;;;23.50;99.90;;;;;;5117292;27;20442;-58
2021/06/23 07:51:59;;;;;;;1.35;0.50;;;23.60;99.90;;;;;;5111779;28;20496;-58
2021/06/23 07:54:36;;;;;;;1.60;0.50;;;23.60;99.90;;;;;;5112356;28;20424;-56
2021/06/23 08:08:15;;;;;;;0.50;0.40;;;24.00;99.90;;;;;;5128696;28;20405;-55
2021/06/23 08:10:44;;;;;;;0.80;0.40;;;24.30;99.90;;;;;;5111286;28;20416;-56
2021/06/23 08:13:14;;;;;;;0.60;0.40;;;24.80;99.90;;;;;;5111514;28;20428;-57
2021/06/23 08:15:43;;;;;;;0.70;0.50;;;25.00;99.90;;;;;;5112150;28;20505;-57
2021/06/23 08:18:10;;;;;;;1.00;0.40;;;25.20;99.90;;;;;;5125535;28;20461;-57
2021/06/23 08:20:38;;;;;;;0.70;0.40;;;25.10;99.90;;;;;;5130878;28;20545;-57
2021/06/23 08:23:05;;;;;;;0.60;0.40;;;25.10;99.90;;;;;;5131806;28;20788;-57
2021/06/23 08:25:32;;;;;;;1.40;0.40;;;25.30;99.90;;;;;;5131905;28;20517;-57
2021/06/23 08:27:59;;;;;;;0.90;0.40;;;25.60;99.90;;;;;;5132844;28;20463;-58
2021/06/23 08:30:28;;;;;;;0.70;0.40;;;25.30;99.90;;;;;;5132908;28;20517;-57
2021/06/23 08:32:56;;;;;;;0.65;0.50;;;25.00;99.90;;;;;;5131069;27;20816;-60
2021/06/23 08:35:23;;;;;;;0.50;0.40;;;25.10;99.90;;;;;;5132955;27;20490;-55
2021/06/23 08:37:49;;;;;;;0.60;0.40;;;25.20;99.90;;;;;;5147785;27;20923;-55
2021/06/23 08:40:17;;;;;;;1.27;0.50;;;25.10;99.90;;;;;;5137700;27;20426;-57
2021/06/23 08:42:44;;;;;;;0.88;0.40;;;25.40;99.90;;;;;;5136229;27;20494;-59
2021/06/23 08:45:13;;;;;;;0.80;0.40;;;25.00;99.90;;;;;;5135815;27;20457;-57
2021/06/23 08:47:43;;;;;;;0.50;0.40;;;25.10;99.90;;;;;;5136162;27;20531;-58
2021/06/23 08:50:11;;;;;;;0.68;0.45;;;25.30;99.90;;;;;;5135702;27;20513;-58
2021/06/23 08:52:38;;;;;;;0.70;0.40;;;25.20;99.90;;;;;;5131372;27;20832;-58
2021/06/23 08:55:06;;;;;;;0.60;0.43;;;24.70;99.90;;;;;;5132432;27;20702;-59
2021/06/23 08:57:34;;;;;;;0.60;0.40;;;24.20;99.90;;;;;;5134160;27;20430;-59
2021/06/23 09:00:01;;;;;;;0.85;0.50;;;24.30;99.90;;;;;;5135879;27;20872;-58
2021/06/23 09:02:31;;;;;;;0.70;0.50;;;24.30;99.90;;;;;;5123560;27;20455;-58
2021/06/23 09:05:00;;;;;;;0.60;0.50;;;24.30;99.90;;;;;;5116165;28;20438;-58
2021/06/23 09:07:43;;;;;;;1.10;0.60;;;24.10;99.90;;;;;;5115676;28;20813;-59
2021/06/23 09:10:35;;;;;;;0.70;0.50;;;23.60;99.90;;;;;;5124104;27;20545;-58
2021/06/23 09:13:18;;;;;;;0.70;0.50;;;23.50;99.90;;;;;;5095942;28;20550;-57
2021/06/23 09:15:48;;;;;;;0.80;0.50;;;23.70;99.90;;;;;;5121900;27;20450;-57
2021/06/23 09:18:17;;;;;;;0.60;0.50;;;23.90;99.90;;;;;;5134608;27;20450;-58
2021/06/23 09:20:46;;;;;;;0.85;0.50;;;24.00;99.90;;;;;;5135643;27;20878;-57
2021/06/23 09:23:14;;;;;;;0.60;0.45;;;23.80;99.90;;;;;;5135301;27;20508;-57
2021/06/23 09:25:45;;;;;;;1.15;0.60;;;23.80;99.90;;;;;;5134384;27;20492;-57
2021/06/23 09:28:17;;;;;;;0.80;0.50;;;23.70;99.90;;;;;;5137001;27;20465;-57
2021/06/23 09:30:46;;;;;;;0.80;0.50;;;23.80;99.90;;;;;;5137096;27;20415;-57
2021/06/23 09:33:19;;;;;;;1.70;0.60;;;23.90;99.90;;;;;;5131779;27;20446;-57
2021/06/23 09:35:49;;;;;;;0.80;0.60;;;24.10;99.90;;;;;;5135563;27;20464;-55
2021/06/23 09:38:46;;;;;;;2.30;0.50;;;24.10;99.90;;;;;;5132502;27;20472;-56
2021/06/23 09:41:25;;;;;;;1.40;0.60;;;24.20;99.90;;;;;;5121943;27;20722;-58
2021/06/23 09:43:54;;;;;;;0.70;0.60;;;24.50;99.90;;;;;;5133633;27;20510;-54
2021/06/23 09:46:24;;;;;;;0.80;0.50;;;24.50;99.90;;;;;;5135614;27;20509;-56
2021/06/23 09:49:03;;;;;;;0.70;0.50;;;24.50;99.90;;;;;;5135231;27;20513;-55
2021/06/23 09:51:39;;;;;;;1.20;0.50;;;24.50;99.90;;;;;;5135070;27;20446;-56
2021/06/23 09:54:06;;;;;;;0.80;0.50;;;24.60;99.90;;;;;;5136114;27;20930;-57
2021/06/23 09:56:37;;;;;;;1.00;0.50;;;25.00;99.90;;;;;;5135453;27;20476;-58
2021/06/23 09:59:04;;;;;;;0.70;0.50;;;25.20;99.90;;;;;;5121466;27;20443;-57
2021/06/23 10:01:38;;;;;;;1.20;0.60;;;25.50;99.90;;;;;;5118495;27;20439;-57
2021/06/23 10:04:08;;;;;;;0.80;0.50;;;25.70;99.90;;;;;;5133986;27;20515;-57
2021/06/23 10:06:38;;;;;;;1.40;0.50;;;25.80;99.90;;;;;;5134390;27;20509;-59
2021/06/23 10:09:20;;;;;;;0.98;0.63;;;25.80;99.90;;;;;;5133795;27;20426;-58
2021/06/23 10:11:49;;;;;;;0.80;0.50;;;25.30;99.90;;;;;;5131887;27;20756;-56
2021/06/23 10:14:16;;;;;;;0.60;0.47;;;25.20;99.90;;;;;;5133361;27;20830;-57
2021/06/23 10:16:44;;;;;;;1.20;0.50;;;25.50;99.90;;;;;;5133975;27;20501;-56
2021/06/23 10:19:11;;;;;;;0.70;0.50;;;25.80;99.90;;;;;;5133434;27;20436;-59
2021/06/23 10:21:40;;;;;;;0.60;0.50;;;25.90;99.90;;;;;;5132038;27;20912;-57
2021/06/23 10:24:10;;;;;;;0.70;0.50;;;25.90;99.90;;;;;;5133276;27;20509;-59
2021/06/23 10:26:43;;;;;;;0.70;0.50;;;25.90;99.90;;;;;;5134271;27;20430;-58
2021/06/23 10:29:14;;;;;;;1.20;0.40;;;25.90;99.90;;;;;;5133947;27;20418;-57
2021/06/23 10:31:42;;;;;;;0.90;0.40;;;25.80;99.90;;;;;;5134246;27;20430;-58
2021/06/23 10:34:10;;;;;;;0.60;0.40;;;25.80;99.90;;;;;;5134834;27;20498;-59
2021/06/23 10:36:39;;;;;;;0.55;0.40;;;25.90;99.90;;;;;;5132885;27;20418;-57
2021/06/23 10:39:06;;;;;;;0.70;0.40;;;26.00;99.90;;;;;;5131754;27;20856;-57
2021/06/23 10:41:39;;;;;;;0.60;0.40;;;26.20;99.90;;;;;;5131504;27;20445;-58
2021/06/23 10:44:21;;;;;;;0.70;0.40;;;26.50;99.90;;;;;;5131492;27;20512;-58
2021/06/23 10:46:50;;;;;;;0.70;0.40;;;27.40;99.90;;;;;;5133695;27;20732;-59
2021/06/23 10:49:18;;;;;;;0.50;0.40;;;27.80;99.90;;;;;;5133552;27;20845;-58
2021/06/23 10:51:51;;;;;;;0.63;0.40;;;27.60;99.90;;;;;;5133147;27;20418;-58
2021/06/23 10:54:36;;;;;;;0.50;0.35;;;27.90;99.90;;;;;;5128720;27;20423;-59
2021/06/23 10:57:22;;;;;;;0.60;0.40;;;28.20;99.90;;;;;;5133070;27;20426;-59
2021/06/23 10:59:49;;;;;;;0.60;0.40;;;28.40;99.90;;;;;;5125674;27;20467;-59
2021/06/23 11:02:16;;;;;;;0.57;0.40;;;28.30;99.90;;;;;;5132956;27;20481;-57
2021/06/23 11:05:12;;;;;;;0.50;0.30;;;28.00;99.90;;;;;;5129756;27;20422;-59
2021/06/23 11:07:43;;;;;;;0.60;0.40;;;27.50;99.90;;;;;;5132190;27;20422;-59
2021/06/23 11:10:40;;;;;;;0.40;0.30;;;28.00;99.90;;;;;;5132710;27;20535;-62
2021/06/23 11:13:10;;;;;;;0.45;0.30;;;28.70;99.90;;;;;;5120285;27;20430;-62
2021/06/23 11:15:42;;;;;;;0.40;0.20;;;29.00;99.90;;;;;;5133283;27;20426;-63
2021/06/23 11:18:37;;;;;;;0.40;0.20;;;28.70;99.90;;;;;;5132593;27;20870;-63
2021/06/23 11:21:15;;;;;;;0.40;0.20;;;28.70;99.90;;;;;;5111609;27;20551;-63
2021/06/23 11:24:01;;;;;;;0.40;0.30;;;29.50;99.90;;;;;;5130614;27;20725;-63
2021/06/23 11:26:58;;;;;;;0.50;0.30;;;30.10;99.90;;;;;;5125324;27;20435;-60
2021/06/23 11:29:33;;;;;;;0.50;0.20;;;30.00;99.90;;;;;;5132696;27;20881;-62
2021/06/23 11:32:06;;;;;;;0.40;0.30;;;29.50;96.40;;;;;;5133149;27;20442;-63
2021/06/23 11:34:56;;;;;;;0.80;0.30;;;29.90;99.90;;;;;;5131201;27;20834;-62
2021/06/23 11:37:30;;;;;;;0.40;0.20;;;30.30;99.20;;;;;;5133794;27;20760;-62
2021/06/23 11:40:17;;;;;;;0.40;0.20;;;30.50;99.50;;;;;;5133083;27;20429;-61
2021/06/23 11:42:44;;;;;;;0.80;0.30;;;30.80;97.90;;;;;;5132617;27;20778;-63
2021/06/23 11:45:12;;;;;;;0.50;0.30;;;30.30;97.50;;;;;;5132051;27;20497;-63
2021/06/23 11:47:40;;;;;;;0.40;0.30;;;29.70;99.50;;;;;;5130417;27;20841;-63
2021/06/23 11:50:07;;;;;;;0.80;0.30;;;29.20;99.90;;;;;;5133131;27;20461;-63
2021/06/23 11:52:35;;;;;;;0.40;0.20;;;29.00;99.90;;;;;;5133082;27;20513;-63
2021/06/23 11:55:02;;;;;;;0.40;0.20;;;28.80;99.90;;;;;;5132576;28;20487;-62
2021/06/23 11:57:30;;;;;;;1.20;0.30;;;28.90;99.90;;;;;;5129816;28;20947;-62
2021/06/23 11:59:57;;;;;;;0.40;0.25;;;28.90;99.90;;;;;;5129480;28;20462;-62
2021/06/23 12:02:26;;;;;;;1.00;0.30;;;29.10;99.90;;;;;;5132487;28;20857;-62
2021/06/23 12:04:53;;;;;;;0.50;0.30;;;28.90;99.90;;;;;;5129387;28;20446;-61
2021/06/23 12:07:20;;;;;;;0.90;0.30;;;28.40;99.90;;;;;;5132278;28;20513;-61
2021/06/23 12:09:47;;;;;;;0.40;0.30;;;28.40;99.90;;;;;;5134504;27;20465;-62
2021/06/23 12:12:14;;;;;;;0.40;0.30;;;28.00;99.90;;;;;;5134584;27;20475;-63
2021/06/23 12:14:42;;;;;;;0.40;0.20;;;28.00;99.90;;;;;;5136637;27;20505;-61
2021/06/23 12:17:09;;;;;;;0.30;0.20;;;27.90;99.90;;;;;;5137735;27;20486;-62
2021/06/23 12:19:37;;;;;;;0.40;0.20;;;27.70;99.90;;;;;;5136887;27;20757;-62
2021/06/23 12:22:04;;;;;;;0.90;0.30;;;27.60;99.90;;;;;;5136830;27;20479;-61
2021/06/23 12:24:31;;;;;;;0.60;0.30;;;27.70;99.90;;;;;;5138122;27;20418;-61
2021/06/23 12:26:58;;;;;;;0.50;0.30;;;28.40;99.90;;;;;;5136724;27;20823;-62
2021/06/23 12:29:25;;;;;;;0.50;0.20;;;29.10;99.90;;;;;;5136916;27;20446;-62
2021/06/23 12:31:54;;;;;;;0.40;0.28;;;29.80;99.90;;;;;;5136426;27;20465;-62
2021/06/23 12:34:21;;;;;;;0.50;0.20;;;30.10;97.90;;;;;;5136888;27;20478;-62
2021/06/23 12:36:48;;;;;;;0.70;0.20;;;30.40;98.80;;;;;;5134323;27;20471;-63
2021/06/23 12:39:15;;;;;;;0.30;0.20;;;30.80;94.60;;;;;;5134371;27;20415;-62
2021/06/23 12:41:42;;;;;;;0.30;0.20;;;30.60;91.30;;;;;;5134746;27;20418;-62
2021/06/23 12:44:09;;;;;;;0.40;0.20;;;30.40;94.20;;;;;;5136061;27;20450;-63
2021/06/23 12:46:36;;;;;;;0.40;0.20;;;29.90;93.60;;;;;;5136969;27;20501;-63
2021/06/23 12:49:04;;;;;;;0.40;0.20;;;29.80;92.50;;;;;;5138010;27;20439;-64
2021/06/23 12:51:31;;;;;;;0.30;0.20;;;29.30;91.90;;;;;;5137006;27;20776;-63
2021/06/23 12:53:57;;;;;;;0.35;0.20;;;29.10;93.90;;;;;;5137549;27;20464;-62
2021/06/23 12:56:24;;;;;;;0.40;0.20;;;28.90;93.60;;;;;;5137135;27;20489;-62
2021/06/23 12:58:51;;;;;;;0.30;0.20;;;28.60;94.10;;;;;;5137487;27;20450;-63
2021/06/23 13:01:19;;;;;;;0.30;0.10;;;28.30;93.50;;;;;;5137133;27;20426;-62
2021/06/23 13:03:46;;;;;;;0.40;0.20;;;28.20;94.30;;;;;;5136387;28;20462;-62
2021/06/23 13:06:14;;;;;;;0.50;0.20;;;28.20;94.80;;;;;;5136921;28;20854;-63
2021/06/23 13:08:41;;;;;;;0.30;0.20;;;28.30;94.90;;;;;;5136083;28;20505;-61
2021/06/23 13:14:07;;;;;;;0.40;0.20;;;28.40;94.30;;;;;;5091848;28;20557;-53